sensor_id;sensor_type;location;lat;lon;timestamp;pressure;altitude;pressure_sealevel;temperature;humidity
13387;BME280;6763;48.524;9.044;2022-10-16T00:00:34;97651.22;;;20.13;58.26
13387;BME280;6763;48.524;9.044;2022-10-16T00:03:00;97641.81;;;20.09;58.09
13387;BME280;6763;48.524;9.044;2022-10-16T00:05:27;97635.03;;;20.05;58.17
13387;BME280;6763;48.524;9.044;2022-10-16T00:07:52;97644.91;;;20.02;58.36
13387;BME280;6763;48.524;9.044;2022-10-16T00:10:18;97646.09;;;19.96;58.44
13387;BME280;6763;48.524;9.044;2022-10-16T00:12:44;97641.03;;;19.93;58.52
13387;BME280;6763;48.524;9.044;2022-10-16T00:15:10;97649.19;;;19.89;58.58
13387;BME280;6763;48.524;9.044;2022-10-16T00:17:36;97655.47;;;19.86;58.64
13387;BME280;6763;48.524;9.044;2022-10-16T00:20:01;97658.44;;;19.80;58.70
13387;BME280;6763;48.524;9.044;2022-10-16T00:22:28;97653.34;;;19.77;58.83
13387;BME280;6763;48.524;9.044;2022-10-16T00:24:53;97662.41;;;19.71;58.79
13387;BME280;6763;48.524;9.044;2022-10-16T00:27:19;97663.53;;;19.67;58.70
13387;BME280;6763;48.524;9.044;2022-10-16T00:29:50;97649.81;;;19.62;58.62
13387;BME280;6763;48.524;9.044;2022-10-16T00:32:17;97661.34;;;19.60;58.80
13387;BME280;6763;48.524;9.044;2022-10-16T00:34:43;97650.16;;;19.56;58.83
13387;BME280;6763;48.524;9.044;2022-10-16T00:37:09;97660.94;;;19.52;58.97
13387;BME280;6763;48.524;9.044;2022-10-16T00:39:34;97660.19;;;19.50;59.18
13387;BME280;6763;48.524;9.044;2022-10-16T00:42:00;97663.72;;;19.49;59.19
13387;BME280;6763;48.524;9.044;2022-10-16T00:44:46;97664.75;;;19.46;59.04
13387;BME280;6763;48.524;9.044;2022-10-16T00:47:37;97653.59;;;19.43;59.35
13387;BME280;6763;48.524;9.044;2022-10-16T00:50:08;97657.22;;;19.40;59.28
13387;BME280;6763;48.524;9.044;2022-10-16T00:52:35;97655.53;;;19.39;59.26
13387;BME280;6763;48.524;9.044;2022-10-16T00:55:04;97660.78;;;19.39;59.22
13387;BME280;6763;48.524;9.044;2022-10-16T00:57:29;97662.56;;;19.39;59.30
13387;BME280;6763;48.524;9.044;2022-10-16T00:59:55;97666.03;;;19.39;59.44
13387;BME280;6763;48.524;9.044;2022-10-16T01:02:22;97663.47;;;19.38;59.61
13387;BME280;6763;48.524;9.044;2022-10-16T01:04:50;97665.19;;;19.39;59.45
13387;BME280;6763;48.524;9.044;2022-10-16T01:09:51;97666.03;;;19.39;59.48
13387;BME280;6763;48.524;9.044;2022-10-16T01:12:26;97666.88;;;19.40;59.46
13387;BME280;6763;48.524;9.044;2022-10-16T01:15:40;97672.97;;;19.40;59.17
13387;BME280;6763;48.524;9.044;2022-10-16T01:20:30;97683.38;;;19.42;59.76
13387;BME280;6763;48.524;9.044;2022-10-16T01:28:15;97667.00;;;19.37;59.67
13387;BME280;6763;48.524;9.044;2022-10-16T01:30:44;97660.03;;;19.37;59.91
13387;BME280;6763;48.524;9.044;2022-10-16T01:33:35;97666.94;;;19.38;59.75
13387;BME280;6763;48.524;9.044;2022-10-16T01:36:15;97674.81;;;19.38;59.60
13387;BME280;6763;48.524;9.044;2022-10-16T01:38:44;97674.59;;;19.43;59.85
13387;BME280;6763;48.524;9.044;2022-10-16T01:43:49;97669.94;;;19.48;59.61
13387;BME280;6763;48.524;9.044;2022-10-16T01:46:18;97667.19;;;19.49;59.82
13387;BME280;6763;48.524;9.044;2022-10-16T01:48:47;97666.19;;;19.52;59.38
13387;BME280;6763;48.524;9.044;2022-10-16T01:51:14;97673.91;;;19.55;59.63
13387;BME280;6763;48.524;9.044;2022-10-16T01:53:43;97670.31;;;19.56;59.20
13387;BME280;6763;48.524;9.044;2022-10-16T01:56:13;97672.03;;;19.57;59.50
13387;BME280;6763;48.524;9.044;2022-10-16T01:58:53;97676.34;;;19.58;59.41
13387;BME280;6763;48.524;9.044;2022-10-16T02:01:22;97670.16;;;19.59;59.43
13387;BME280;6763;48.524;9.044;2022-10-16T02:03:51;97668.38;;;19.59;59.45
13387;BME280;6763;48.524;9.044;2022-10-16T02:06:17;97668.38;;;19.59;59.43
13387;BME280;6763;48.524;9.044;2022-10-16T02:08:42;97670.94;;;19.61;59.31
13387;BME280;6763;48.524;9.044;2022-10-16T02:11:09;97661.19;;;19.63;59.42
13387;BME280;6763;48.524;9.044;2022-10-16T02:13:45;97666.28;;;19.66;59.24
13387;BME280;6763;48.524;9.044;2022-10-16T02:16:13;97651.44;;;19.65;59.39
13387;BME280;6763;48.524;9.044;2022-10-16T02:18:39;97657.44;;;19.67;59.33
13387;BME280;6763;48.524;9.044;2022-10-16T02:21:25;97671.41;;;19.67;59.21
13387;BME280;6763;48.524;9.044;2022-10-16T02:24:03;97667.94;;;19.67;59.35
13387;BME280;6763;48.524;9.044;2022-10-16T02:26:36;97675.91;;;19.65;59.36
13387;BME280;6763;48.524;9.044;2022-10-16T02:29:08;97674.38;;;19.61;59.38
13387;BME280;6763;48.524;9.044;2022-10-16T02:31:39;97680.00;;;19.55;59.58
13387;BME280;6763;48.524;9.044;2022-10-16T02:34:07;97677.59;;;19.51;59.65
13387;BME280;6763;48.524;9.044;2022-10-16T02:36:36;97675.25;;;19.46;59.77
13387;BME280;6763;48.524;9.044;2022-10-16T02:39:04;97676.38;;;19.42;59.71
13387;BME280;6763;48.524;9.044;2022-10-16T02:41:30;97677.38;;;19.40;59.77
13387;BME280;6763;48.524;9.044;2022-10-16T02:43:56;97673.16;;;19.37;59.67
13387;BME280;6763;48.524;9.044;2022-10-16T02:46:21;97679.28;;;19.36;59.83
13387;BME280;6763;48.524;9.044;2022-10-16T02:48:47;97677.59;;;19.35;59.66
13387;BME280;6763;48.524;9.044;2022-10-16T02:51:12;97677.69;;;19.34;59.74
13387;BME280;6763;48.524;9.044;2022-10-16T02:53:38;97678.53;;;19.34;59.59
13387;BME280;6763;48.524;9.044;2022-10-16T02:56:03;97678.69;;;19.31;59.75
13387;BME280;6763;48.524;9.044;2022-10-16T02:58:29;97677.09;;;19.29;59.74
13387;BME280;6763;48.524;9.044;2022-10-16T03:00:55;97676.22;;;19.28;59.70
13387;BME280;6763;48.524;9.044;2022-10-16T03:03:21;97679.88;;;19.26;59.83
13387;BME280;6763;48.524;9.044;2022-10-16T03:05:46;97675.56;;;19.25;59.82
13387;BME280;6763;48.524;9.044;2022-10-16T03:08:15;97673.88;;;19.24;59.95
13387;BME280;6763;48.524;9.044;2022-10-16T03:10:41;97668.63;;;19.24;60.02
13387;BME280;6763;48.524;9.044;2022-10-16T03:13:06;97674.63;;;19.26;59.85
13387;BME280;6763;48.524;9.044;2022-10-16T03:15:32;97671.94;;;19.27;59.93
13387;BME280;6763;48.524;9.044;2022-10-16T03:17:58;97676.22;;;19.28;60.15
13387;BME280;6763;48.524;9.044;2022-10-16T03:20:24;97677.94;;;19.29;59.98
13387;BME280;6763;48.524;9.044;2022-10-16T03:22:49;97681.47;;;19.28;60.05
13387;BME280;6763;48.524;9.044;2022-10-16T03:25:15;97680.81;;;19.25;60.27
13387;BME280;6763;48.524;9.044;2022-10-16T03:27:41;97673.88;;;19.24;60.00
13387;BME280;6763;48.524;9.044;2022-10-16T03:30:06;97674.88;;;19.21;59.98
13387;BME280;6763;48.524;9.044;2022-10-16T03:32:32;97688.94;;;19.20;59.87
13387;BME280;6763;48.524;9.044;2022-10-16T03:34:57;97682.91;;;19.18;60.05
13387;BME280;6763;48.524;9.044;2022-10-16T03:37:23;97677.78;;;19.16;60.05
13387;BME280;6763;48.524;9.044;2022-10-16T03:39:49;97688.25;;;19.16;59.92
13387;BME280;6763;48.524;9.044;2022-10-16T03:42:15;97680.41;;;19.16;59.99
13387;BME280;6763;48.524;9.044;2022-10-16T03:44:40;97686.47;;;19.17;59.97
13387;BME280;6763;48.524;9.044;2022-10-16T03:47:05;97679.53;;;19.16;59.93
13387;BME280;6763;48.524;9.044;2022-10-16T03:49:31;97688.25;;;19.16;59.97
13387;BME280;6763;48.524;9.044;2022-10-16T03:51:56;97689.09;;;19.17;59.92
13387;BME280;6763;48.524;9.044;2022-10-16T03:54:21;97689.09;;;19.17;60.08
13387;BME280;6763;48.524;9.044;2022-10-16T03:56:47;97694.53;;;19.14;60.01
13387;BME280;6763;48.524;9.044;2022-10-16T03:59:13;97693.84;;;19.10;60.00
13387;BME280;6763;48.524;9.044;2022-10-16T04:01:38;97700.09;;;19.08;60.16
13387;BME280;6763;48.524;9.044;2022-10-16T04:04:04;97702.03;;;19.04;60.18
13387;BME280;6763;48.524;9.044;2022-10-16T04:06:29;97700.34;;;19.03;60.13
13387;BME280;6763;48.524;9.044;2022-10-16T04:08:54;97696.94;;;19.01;60.26
13387;BME280;6763;48.524;9.044;2022-10-16T04:11:20;97695.25;;;19.00;60.28
13387;BME280;6763;48.524;9.044;2022-10-16T04:13:45;97698.03;;;18.97;60.43
13387;BME280;6763;48.524;9.044;2022-10-16T04:16:10;97700.81;;;18.94;60.40
13387;BME280;6763;48.524;9.044;2022-10-16T04:18:36;97695.69;;;18.93;60.26
13387;BME280;6763;48.524;9.044;2022-10-16T04:21:03;97692.09;;;18.94;60.36
13387;BME280;6763;48.524;9.044;2022-10-16T04:23:28;97700.06;;;18.92;60.55
13387;BME280;6763;48.524;9.044;2022-10-16T04:25:54;97698.34;;;18.91;60.38
13387;BME280;6763;48.524;9.044;2022-10-16T04:28:19;97694.72;;;18.94;60.39
13387;BME280;6763;48.524;9.044;2022-10-16T04:30:45;97692.03;;;18.95;60.37
13387;BME280;6763;48.524;9.044;2022-10-16T04:33:10;97697.13;;;18.98;60.38
13387;BME280;6763;48.524;9.044;2022-10-16T04:35:36;97690.94;;;18.99;60.14
13387;BME280;6763;48.524;9.044;2022-10-16T04:38:02;97693.41;;;19.02;60.31
13387;BME280;6763;48.524;9.044;2022-10-16T04:40:28;97699.50;;;19.03;60.20
13387;BME280;6763;48.524;9.044;2022-10-16T04:42:54;97703.78;;;19.04;60.24
13387;BME280;6763;48.524;9.044;2022-10-16T04:45:19;97704.66;;;19.04;60.17
13387;BME280;6763;48.524;9.044;2022-10-16T04:47:45;97698.56;;;19.04;60.30
13387;BME280;6763;48.524;9.044;2022-10-16T04:50:10;97707.22;;;19.06;60.22
13387;BME280;6763;48.524;9.044;2022-10-16T04:52:35;97712.53;;;19.04;60.10
13387;BME280;6763;48.524;9.044;2022-10-16T04:55:01;97712.53;;;19.04;60.19
13387;BME280;6763;48.524;9.044;2022-10-16T04:57:29;97708.97;;;19.05;60.45
13387;BME280;6763;48.524;9.044;2022-10-16T04:59:54;97717.75;;;19.04;60.11
13387;BME280;6763;48.524;9.044;2022-10-16T05:02:19;97721.41;;;19.02;60.28
13387;BME280;6763;48.524;9.044;2022-10-16T05:04:55;97713.78;;;18.97;60.08
13387;BME280;6763;48.524;9.044;2022-10-16T05:07:21;97719.28;;;18.93;60.24
13387;BME280;6763;48.524;9.044;2022-10-16T05:09:52;97722.97;;;18.89;60.36
13387;BME280;6763;48.524;9.044;2022-10-16T05:12:18;97725.00;;;18.84;60.63
13387;BME280;6763;48.524;9.044;2022-10-16T05:14:44;97727.00;;;18.79;60.59
13387;BME280;6763;48.524;9.044;2022-10-16T05:17:09;97730.75;;;18.75;60.62
13387;BME280;6763;48.524;9.044;2022-10-16T05:19:34;97728.38;;;18.70;60.54
13387;BME280;6763;48.524;9.044;2022-10-16T05:22:00;97730.44;;;18.64;60.49
13387;BME280;6763;48.524;9.044;2022-10-16T05:24:26;97726.28;;;18.60;60.81
13387;BME280;6763;48.524;9.044;2022-10-16T05:26:51;97722.97;;;18.56;60.93
13387;BME280;6763;48.524;9.044;2022-10-16T05:29:17;97716.13;;;18.53;60.77
13387;BME280;6763;48.524;9.044;2022-10-16T05:31:43;97725.84;;;18.51;60.56
13387;BME280;6763;48.524;9.044;2022-10-16T05:34:09;97730.28;;;18.49;60.53
13387;BME280;6763;48.524;9.044;2022-10-16T05:36:35;97731.28;;;18.47;60.72
13387;BME280;6763;48.524;9.044;2022-10-16T05:39:00;97738.34;;;18.45;60.91
13387;BME280;6763;48.524;9.044;2022-10-16T05:41:25;97738.34;;;18.45;60.96
13387;BME280;6763;48.524;9.044;2022-10-16T05:43:52;97750.59;;;18.44;61.01
13387;BME280;6763;48.524;9.044;2022-10-16T05:46:17;97751.41;;;18.46;61.33
13387;BME280;6763;48.524;9.044;2022-10-16T05:48:43;97751.34;;;18.48;61.31
13387;BME280;6763;48.524;9.044;2022-10-16T05:51:13;97748.56;;;18.51;61.34
13387;BME280;6763;48.524;9.044;2022-10-16T05:53:40;97748.44;;;18.54;61.35
13387;BME280;6763;48.524;9.044;2022-10-16T05:56:07;97755.19;;;18.58;61.48
13387;BME280;6763;48.524;9.044;2022-10-16T05:58:36;97754.13;;;18.62;61.43
13387;BME280;6763;48.524;9.044;2022-10-16T06:01:03;97758.28;;;18.66;61.16
13387;BME280;6763;48.524;9.044;2022-10-16T06:03:29;97765.06;;;18.70;61.33
13387;BME280;6763;48.524;9.044;2022-10-16T06:05:55;97765.84;;;18.72;61.11
13387;BME280;6763;48.524;9.044;2022-10-16T06:08:21;97765.75;;;18.74;61.12
13387;BME280;6763;48.524;9.044;2022-10-16T06:10:48;97772.69;;;18.75;61.01
13387;BME280;6763;48.524;9.044;2022-10-16T06:13:14;97780.63;;;18.73;61.03
13387;BME280;6763;48.524;9.044;2022-10-16T06:15:41;97772.69;;;18.75;61.04
13387;BME280;6763;48.524;9.044;2022-10-16T06:18:08;97772.00;;;18.71;61.03
13387;BME280;6763;48.524;9.044;2022-10-16T06:20:34;97771.94;;;18.73;60.75
13387;BME280;6763;48.524;9.044;2022-10-16T06:23:00;97773.59;;;18.74;61.13
13387;BME280;6763;48.524;9.044;2022-10-16T06:25:25;97782.25;;;18.76;61.14
13387;BME280;6763;48.524;9.044;2022-10-16T06:27:50;97781.03;;;18.83;61.16
13387;BME280;6763;48.524;9.044;2022-10-16T06:30:16;97775.38;;;18.90;60.92
13387;BME280;6763;48.524;9.044;2022-10-16T06:32:41;97781.91;;;18.99;60.92
13387;BME280;6763;48.524;9.044;2022-10-16T06:35:07;97781.28;;;19.11;61.17
13387;BME280;6763;48.524;9.044;2022-10-16T06:37:32;97787.47;;;19.26;61.04
13387;BME280;6763;48.524;9.044;2022-10-16T06:39:58;97791.19;;;19.39;60.68
13387;BME280;6763;48.524;9.044;2022-10-16T06:42:23;97804.47;;;19.51;60.37
13387;BME280;6763;48.524;9.044;2022-10-16T06:44:49;97800.34;;;19.63;60.36
13387;BME280;6763;48.524;9.044;2022-10-16T06:47:14;97804.06;;;19.74;60.09
13387;BME280;6763;48.524;9.044;2022-10-16T06:49:39;97801.72;;;19.86;60.05
13387;BME280;6763;48.524;9.044;2022-10-16T06:52:05;97797.63;;;19.96;59.63
13387;BME280;6763;48.524;9.044;2022-10-16T06:54:30;97804.06;;;20.06;59.59
13387;BME280;6763;48.524;9.044;2022-10-16T06:56:56;97803.63;;;20.13;59.64
13387;BME280;6763;48.524;9.044;2022-10-16T06:59:22;97816.34;;;20.21;59.56
13387;BME280;6763;48.524;9.044;2022-10-16T07:01:47;97818.56;;;20.28;59.19
13387;BME280;6763;48.524;9.044;2022-10-16T07:04:13;97817.19;;;20.37;59.22
13387;BME280;6763;48.524;9.044;2022-10-16T07:06:38;97819.31;;;20.46;58.93
13387;BME280;6763;48.524;9.044;2022-10-16T07:09:06;97821.41;;;20.55;59.00
13387;BME280;6763;48.524;9.044;2022-10-16T07:11:32;97826.03;;;20.66;58.85
13387;BME280;6763;48.524;9.044;2022-10-16T07:13:58;97835.09;;;20.76;58.74
13387;BME280;6763;48.524;9.044;2022-10-16T07:16:26;97831.94;;;20.85;58.60
13387;BME280;6763;48.524;9.044;2022-10-16T07:18:56;97832.22;;;20.94;58.37
13387;BME280;6763;48.524;9.044;2022-10-16T07:21:24;97845.03;;;21.00;58.31
13387;BME280;6763;48.524;9.044;2022-10-16T07:23:56;97849.13;;;21.06;57.93
13387;BME280;6763;48.524;9.044;2022-10-16T07:26:23;97854.00;;;21.12;58.20
13387;BME280;6763;48.524;9.044;2022-10-16T07:28:51;97850.81;;;21.21;57.95
13387;BME280;6763;48.524;9.044;2022-10-16T07:31:19;97862.56;;;21.30;57.73
13387;BME280;6763;48.524;9.044;2022-10-16T07:33:46;97875.47;;;21.34;57.76
13387;BME280;6763;48.524;9.044;2022-10-16T07:36:13;97869.19;;;21.37;57.53
13387;BME280;6763;48.524;9.044;2022-10-16T07:38:39;97876.97;;;21.38;57.13
13387;BME280;6763;48.524;9.044;2022-10-16T07:41:06;97882.25;;;21.38;56.67
13387;BME280;6763;48.524;9.044;2022-10-16T07:43:33;97884.81;;;21.40;56.44
13387;BME280;6763;48.524;9.044;2022-10-16T07:45:59;97872.47;;;21.40;56.32
13387;BME280;6763;48.524;9.044;2022-10-16T07:48:28;97876.50;;;21.46;56.13
13387;BME280;6763;48.524;9.044;2022-10-16T07:51:05;97880.38;;;21.54;56.05
13387;BME280;6763;48.524;9.044;2022-10-16T07:53:31;97885.00;;;21.65;56.07
13387;BME280;6763;48.524;9.044;2022-10-16T07:56:02;97892.31;;;21.74;55.75
13387;BME280;6763;48.524;9.044;2022-10-16T07:58:28;97897.34;;;21.79;55.56
13387;BME280;6763;48.524;9.044;2022-10-16T08:00:54;97895.53;;;21.79;55.99
13387;BME280;6763;48.524;9.044;2022-10-16T08:03:19;97897.78;;;21.85;55.78
13387;BME280;6763;48.524;9.044;2022-10-16T08:05:44;97891.50;;;21.88;55.18
13387;BME280;6763;48.524;9.044;2022-10-16T08:08:14;97885.88;;;21.94;55.25
13387;BME280;6763;48.524;9.044;2022-10-16T08:10:40;97882.44;;;22.06;55.27
13387;BME280;6763;48.524;9.044;2022-10-16T08:13:05;97890.97;;;22.23;55.04
13387;BME280;6763;48.524;9.044;2022-10-16T08:15:31;97893.47;;;22.39;54.12
13387;BME280;6763;48.524;9.044;2022-10-16T08:20:21;97899.66;;;22.66;53.33
13387;BME280;6763;48.524;9.044;2022-10-16T08:22:47;97896.66;;;22.85;53.15
13387;BME280;6763;48.524;9.044;2022-10-16T08:25:12;97897.56;;;23.11;52.91
13387;BME280;6763;48.524;9.044;2022-10-16T08:27:37;97898.66;;;23.33;52.33
13387;BME280;6763;48.524;9.044;2022-10-16T08:30:03;97894.97;;;23.49;51.48
13387;BME280;6763;48.524;9.044;2022-10-16T08:32:28;97904.81;;;23.59;51.67
13387;BME280;6763;48.524;9.044;2022-10-16T08:34:54;97916.66;;;23.66;51.48
13387;BME280;6763;48.524;9.044;2022-10-16T08:37:19;97910.81;;;23.74;51.20
13387;BME280;6763;48.524;9.044;2022-10-16T08:39:44;97915.38;;;23.84;50.96
13387;BME280;6763;48.524;9.044;2022-10-16T08:42:29;97922.66;;;23.93;50.46
13387;BME280;6763;48.524;9.044;2022-10-16T08:50:29;97920.13;;;24.04;49.80
13387;BME280;6763;48.524;9.044;2022-10-16T08:52:56;97923.31;;;24.10;49.86
13387;BME280;6763;48.524;9.044;2022-10-16T08:55:37;97921.28;;;24.13;49.23
13387;BME280;6763;48.524;9.044;2022-10-16T08:58:14;97923.84;;;24.15;48.88
13387;BME280;6763;48.524;9.044;2022-10-16T09:00:40;97927.22;;;24.17;48.82
13387;BME280;6763;48.524;9.044;2022-10-16T09:03:17;97928.78;;;24.19;48.29
13387;BME280;6763;48.524;9.044;2022-10-16T09:06:04;97924.22;;;24.21;47.92
13387;BME280;6763;48.524;9.044;2022-10-16T09:08:56;97930.91;;;24.27;48.13
13387;BME280;6763;48.524;9.044;2022-10-16T09:14:40;97942.13;;;24.54;47.48
13387;BME280;6763;48.524;9.044;2022-10-16T09:19:48;97932.16;;;24.94;46.63
13387;BME280;6763;48.524;9.044;2022-10-16T09:22:16;97939.88;;;25.20;46.44
13387;BME280;6763;48.524;9.044;2022-10-16T09:24:43;97936.00;;;25.48;45.75
13387;BME280;6763;48.524;9.044;2022-10-16T09:27:13;97941.56;;;25.78;45.25
13387;BME280;6763;48.524;9.044;2022-10-16T09:29:39;97939.94;;;25.88;44.45
13387;BME280;6763;48.524;9.044;2022-10-16T09:32:15;97937.13;;;25.90;44.12
13387;BME280;6763;48.524;9.044;2022-10-16T09:34:47;97941.25;;;26.05;44.10
13387;BME280;6763;48.524;9.044;2022-10-16T09:37:17;97942.94;;;26.28;43.19
13387;BME280;6763;48.524;9.044;2022-10-16T09:39:53;97941.63;;;26.45;43.39
13387;BME280;6763;48.524;9.044;2022-10-16T09:42:31;97938.13;;;26.44;43.01
13387;BME280;6763;48.524;9.044;2022-10-16T09:44:58;97931.00;;;26.34;43.20
13387;BME280;6763;48.524;9.044;2022-10-16T09:47:25;97939.25;;;26.20;43.31
13387;BME280;6763;48.524;9.044;2022-10-16T09:52:25;97931.47;;;26.06;43.70
13387;BME280;6763;48.524;9.044;2022-10-16T09:54:52;97938.72;;;26.04;43.84
13387;BME280;6763;48.524;9.044;2022-10-16T09:57:18;97947.53;;;26.04;43.71
13387;BME280;6763;48.524;9.044;2022-10-16T09:59:54;97947.63;;;26.03;43.98
13387;BME280;6763;48.524;9.044;2022-10-16T10:02:29;97952.94;;;26.03;43.67
13387;BME280;6763;48.524;9.044;2022-10-16T10:04:55;97956.56;;;26.02;43.34
13387;BME280;6763;48.524;9.044;2022-10-16T10:07:27;97951.47;;;26.10;43.59
13387;BME280;6763;48.524;9.044;2022-10-16T10:09:54;97950.34;;;26.14;43.55
13387;BME280;6763;48.524;9.044;2022-10-16T10:12:24;97949.59;;;26.23;43.37
13387;BME280;6763;48.524;9.044;2022-10-16T10:14:52;97946.06;;;26.56;43.02
13387;BME280;6763;48.524;9.044;2022-10-16T10:17:28;97943.13;;;26.92;42.23
13387;BME280;6763;48.524;9.044;2022-10-16T10:19:54;97949.44;;;27.12;42.19
13387;BME280;6763;48.524;9.044;2022-10-16T10:22:39;97947.78;;;27.31;41.88
13387;BME280;6763;48.524;9.044;2022-10-16T10:36:28;97927.69;;;29.57;36.71
13387;BME280;6763;48.524;9.044;2022-10-16T10:39:08;97921.88;;;29.90;35.87
13387;BME280;6763;48.524;9.044;2022-10-16T10:42:01;97929.53;;;30.12;35.77
13387;BME280;6763;48.524;9.044;2022-10-16T10:53:27;97932.06;;;30.95;32.68
13387;BME280;6763;48.524;9.044;2022-10-16T10:56:05;97930.16;;;31.05;32.47
13387;BME280;6763;48.524;9.044;2022-10-16T11:01:10;97923.13;;;31.40;31.55
13387;BME280;6763;48.524;9.044;2022-10-16T11:09:15;97925.75;;;32.26;29.93
13387;BME280;6763;48.524;9.044;2022-10-16T11:12:03;97913.84;;;32.55;29.34
13387;BME280;6763;48.524;9.044;2022-10-16T11:22:26;97914.50;;;33.15;26.38
13387;BME280;6763;48.524;9.044;2022-10-16T11:25:11;97910.97;;;33.06;26.53
13387;BME280;6763;48.524;9.044;2022-10-16T11:27:47;97911.59;;;33.00;26.42
13387;BME280;6763;48.524;9.044;2022-10-16T11:30:44;97907.81;;;32.69;26.69
13387;BME280;6763;48.524;9.044;2022-10-16T11:33:23;97913.03;;;32.28;26.68
13387;BME280;6763;48.524;9.044;2022-10-16T11:36:20;97911.47;;;32.18;27.58
13387;BME280;6763;48.524;9.044;2022-10-16T11:46:46;97906.91;;;32.10;26.90
13387;BME280;6763;48.524;9.044;2022-10-16T11:49:19;97911.25;;;32.03;26.49
13387;BME280;6763;48.524;9.044;2022-10-16T11:52:17;97906.06;;;32.10;26.56
13387;BME280;6763;48.524;9.044;2022-10-16T11:54:56;97894.25;;;32.20;26.19
13387;BME280;6763;48.524;9.044;2022-10-16T11:57:28;97901.31;;;32.37;26.79
13387;BME280;6763;48.524;9.044;2022-10-16T11:59:58;97901.31;;;32.29;26.19
13387;BME280;6763;48.524;9.044;2022-10-16T12:10:33;97899.13;;;31.73;26.70
13387;BME280;6763;48.524;9.044;2022-10-16T12:13:03;97893.78;;;31.30;26.86
13387;BME280;6763;48.524;9.044;2022-10-16T12:15:33;97899.66;;;31.16;26.92
13387;BME280;6763;48.524;9.044;2022-10-16T12:17:59;97901.88;;;31.38;27.21
13387;BME280;6763;48.524;9.044;2022-10-16T12:20:30;97901.06;;;31.89;26.38
13387;BME280;6763;48.524;9.044;2022-10-16T12:23:00;97901.34;;;32.45;25.66
13387;BME280;6763;48.524;9.044;2022-10-16T12:25:30;97898.28;;;32.74;25.00
13387;BME280;6763;48.524;9.044;2022-10-16T12:28:02;97901.47;;;32.70;24.97
13387;BME280;6763;48.524;9.044;2022-10-16T12:30:31;97899.63;;;32.62;25.71
13387;BME280;6763;48.524;9.044;2022-10-16T12:33:00;97894.66;;;32.91;25.04
13387;BME280;6763;48.524;9.044;2022-10-16T12:35:29;97894.69;;;33.16;25.14
13387;BME280;6763;48.524;9.044;2022-10-16T12:41:04;97887.13;;;33.76;24.36
13387;BME280;6763;48.524;9.044;2022-10-16T12:43:46;97886.44;;;33.90;24.49
13387;BME280;6763;48.524;9.044;2022-10-16T12:48:40;97886.34;;;34.22;23.83
13387;BME280;6763;48.524;9.044;2022-10-16T12:54:13;97872.47;;;34.49;22.89
13387;BME280;6763;48.524;9.044;2022-10-16T12:56:55;97886.38;;;34.53;23.12
13387;BME280;6763;48.524;9.044;2022-10-16T12:59:46;97882.25;;;34.42;23.09
13387;BME280;6763;48.524;9.044;2022-10-16T13:02:46;97887.34;;;34.29;23.41
13387;BME280;6763;48.524;9.044;2022-10-16T13:24:03;97894.88;;;31.63;26.94
13387;BME280;6763;48.524;9.044;2022-10-16T13:29:20;97911.97;;;31.62;27.32
13387;BME280;6763;48.524;9.044;2022-10-16T13:31:46;97907.41;;;31.54;27.34
13387;BME280;6763;48.524;9.044;2022-10-16T13:34:15;97897.13;;;31.50;27.77
13387;BME280;6763;48.524;9.044;2022-10-16T13:36:47;97902.25;;;31.61;27.75
13387;BME280;6763;48.524;9.044;2022-10-16T13:39:22;97909.34;;;31.96;27.46
13387;BME280;6763;48.524;9.044;2022-10-16T13:42:04;97896.06;;;32.20;26.80
13387;BME280;6763;48.524;9.044;2022-10-16T13:47:15;97903.44;;;32.18;26.78
13387;BME280;6763;48.524;9.044;2022-10-16T13:49:41;97903.94;;;32.13;27.13
13387;BME280;6763;48.524;9.044;2022-10-16T13:52:17;97895.03;;;32.13;27.22
13387;BME280;6763;48.524;9.044;2022-10-16T13:54:43;97890.25;;;32.24;27.29
13387;BME280;6763;48.524;9.044;2022-10-16T13:57:08;97898.16;;;32.34;26.82
13387;BME280;6763;48.524;9.044;2022-10-16T13:59:35;97897.53;;;32.40;26.78
13387;BME280;6763;48.524;9.044;2022-10-16T14:04:54;97904.19;;;32.36;26.77
13387;BME280;6763;48.524;9.044;2022-10-16T14:07:27;97903.84;;;32.31;27.36
13387;BME280;6763;48.524;9.044;2022-10-16T14:09:54;97901.31;;;32.29;27.23
13387;BME280;6763;48.524;9.044;2022-10-16T14:12:20;97902.97;;;32.30;27.22
13387;BME280;6763;48.524;9.044;2022-10-16T14:14:49;97908.69;;;32.35;27.38
13387;BME280;6763;48.524;9.044;2022-10-16T14:17:20;97902.03;;;32.39;27.15
13387;BME280;6763;48.524;9.044;2022-10-16T14:19:53;97902.03;;;32.39;27.32
13387;BME280;6763;48.524;9.044;2022-10-16T14:24:55;97905.53;;;32.32;27.09
13387;BME280;6763;48.524;9.044;2022-10-16T14:27:31;97899.81;;;32.35;26.84
13387;BME280;6763;48.524;9.044;2022-10-16T14:30:14;97904.34;;;32.34;26.79
13387;BME280;6763;48.524;9.044;2022-10-16T14:32:41;97906.88;;;32.36;26.99
13387;BME280;6763;48.524;9.044;2022-10-16T14:37:54;97903.34;;;32.35;26.97
13387;BME280;6763;48.524;9.044;2022-10-16T14:40:24;97910.41;;;32.44;26.70
13387;BME280;6763;48.524;9.044;2022-10-16T14:42:50;97912.59;;;32.91;26.32
13387;BME280;6763;48.524;9.044;2022-10-16T14:45:21;97917.34;;;33.29;26.04
13387;BME280;6763;48.524;9.044;2022-10-16T14:47:51;97912.66;;;33.63;25.08
13387;BME280;6763;48.524;9.044;2022-10-16T14:50:18;97910.41;;;34.15;24.72
13387;BME280;6763;48.524;9.044;2022-10-16T14:52:43;97913.59;;;34.19;24.72
13387;BME280;6763;48.524;9.044;2022-10-16T14:55:09;97914.09;;;33.98;24.60
13387;BME280;6763;48.524;9.044;2022-10-16T14:57:37;97910.31;;;33.77;24.90
13387;BME280;6763;48.524;9.044;2022-10-16T15:00:09;97915.34;;;33.47;25.46
13387;BME280;6763;48.524;9.044;2022-10-16T15:02:38;97918.84;;;33.16;25.53
13387;BME280;6763;48.524;9.044;2022-10-16T15:05:14;97921.78;;;32.80;26.11
13387;BME280;6763;48.524;9.044;2022-10-16T15:07:40;97920.13;;;32.45;26.14
13387;BME280;6763;48.524;9.044;2022-10-16T15:10:06;97927.91;;;32.23;26.42
13387;BME280;6763;48.524;9.044;2022-10-16T15:12:31;97930.13;;;32.02;26.98
13387;BME280;6763;48.524;9.044;2022-10-16T15:14:57;97923.81;;;31.85;26.94
13387;BME280;6763;48.524;9.044;2022-10-16T15:17:22;97921.50;;;31.64;27.57
13387;BME280;6763;48.524;9.044;2022-10-16T15:19:47;97918.84;;;31.47;28.14
13387;BME280;6763;48.524;9.044;2022-10-16T15:22:13;97917.69;;;31.31;28.53